Time;durP1;ratioP1;P1;durP2;ratioP2;P2;SDS_P1;SDS_P2;PMS_P1;PMS_P2;Temp;Humidity;BMP_temperature;BMP_pressure;BME280_temperature;BME280_humidity;BME280_pressure;Samples;Min_cycle;Max_cycle;Signal;HPM_P1;HPM_P2
2023/06/28 00:00:02;;;;;;;;;;;19.00;63.60;;;;;;5056706;28;20020;-79
2023/06/28 00:02:27;;;;;;;;;;;19.00;63.70;;;;;;5083245;28;20309;-79
2023/06/28 00:04:53;;;;;;;;;;;19.00;63.50;;;;;;5059776;28;19913;-78
2023/06/28 00:07:18;;;;;;;;;;;19.00;63.50;;;;;;5043737;28;20402;-79
2023/06/28 00:09:44;;;;;;;;;;;19.00;63.00;;;;;;5061588;28;19924;-79
2023/06/28 00:12:09;;;;;;;;;;;19.00;62.70;;;;;;5069003;28;19927;-79
2023/06/28 00:14:35;;;;;;;;;;;18.90;62.90;;;;;;5056969;28;19913;-79
2023/06/28 00:17:01;;;;;;;;;;;19.00;62.30;;;;;;5061636;28;19955;-79
2023/06/28 00:19:26;;;;;;;;;;;19.00;62.40;;;;;;5065866;28;19952;-79
2023/06/28 00:21:53;;;;;;;;;;;18.90;62.60;;;;;;5060563;28;19917;-78
2023/06/28 00:24:18;;;;;;;;;;;19.00;61.70;;;;;;5061891;28;20673;-78
2023/06/28 00:26:44;;;;;;;;;;;19.00;61.60;;;;;;5063266;28;19924;-78
2023/06/28 00:29:09;;;;;;;;;;;18.90;62.40;;;;;;5061632;28;19920;-78
2023/06/28 00:31:35;;;;;;;;;;;18.80;63.00;;;;;;5061660;28;19917;-79
2023/06/28 00:34:00;;;;;;;;;;;18.70;63.20;;;;;;5061838;28;19920;-79
2023/06/28 00:36:26;;;;;;;;;;;18.60;63.80;;;;;;5061447;28;19947;-79
2023/06/28 00:38:51;;;;;;;;;;;18.60;63.40;;;;;;5061839;28;19917;-78
2023/06/28 00:41:17;;;;;;;;;;;18.70;63.40;;;;;;5062110;28;20388;-79
2023/06/28 00:43:43;;;;;;;;;;;18.70;62.60;;;;;;5065680;28;19958;-79
2023/06/28 00:46:08;;;;;;;;;;;18.60;63.40;;;;;;5064894;28;20781;-79
2023/06/28 00:48:34;;;;;;;;;;;18.60;62.80;;;;;;5065677;28;20435;-78
2023/06/28 00:51:00;;;;;;;;;;;18.50;63.40;;;;;;5065304;28;20380;-80
2023/06/28 00:53:26;;;;;;;;;;;18.50;63.60;;;;;;5057207;28;19912;-79
2023/06/28 00:55:53;;;;;;;;;;;18.50;63.10;;;;;;5064775;28;19928;-78
2023/06/28 00:58:19;;;;;;;;;;;18.50;63.30;;;;;;5065789;28;19913;-77
2023/06/28 01:00:45;;;;;;;;;;;18.40;63.50;;;;;;5066331;28;20394;-78
2023/06/28 01:03:11;;;;;;;;;;;18.30;64.10;;;;;;5065502;28;19908;-78
2023/06/28 01:05:36;;;;;;;;;;;18.30;64.60;;;;;;5064875;28;19913;-78
2023/06/28 01:08:04;;;;;;;;;;;18.30;63.80;;;;;;5065087;28;19924;-78
2023/06/28 01:10:30;;;;;;;;;;;18.20;64.80;;;;;;5061878;28;20481;-78
2023/06/28 01:12:56;;;;;;;;;;;18.30;64.40;;;;;;5064597;28;19940;-78
2023/06/28 01:15:22;;;;;;;;;;;18.30;63.40;;;;;;5042801;28;19932;-79
2023/06/28 01:17:47;;;;;;;;;;;18.20;63.90;;;;;;5065329;28;19912;-79
2023/06/28 01:20:14;;;;;;;;;;;18.20;63.50;;;;;;5064824;28;19916;-79
2023/06/28 01:22:40;;;;;;;;;;;18.20;63.50;;;;;;5079756;28;19913;-79
2023/06/28 01:25:09;;;;;;;;;;;18.20;62.70;;;;;;5044605;28;19921;-79
2023/06/28 01:27:35;;;;;;;;;;;18.20;63.00;;;;;;5038058;28;20407;-79
2023/06/28 01:30:00;;;;;;;;;;;18.30;62.20;;;;;;5044343;28;20008;-79
2023/06/28 01:32:26;;;;;;;;;;;18.30;62.00;;;;;;5047393;28;19990;-79
2023/06/28 01:34:51;;;;;;;;;;;18.20;62.90;;;;;;5047254;28;19917;-79
2023/06/28 01:37:17;;;;;;;;;;;18.10;63.00;;;;;;5047571;28;19912;-79
2023/06/28 01:39:43;;;;;;;;;;;18.30;61.40;;;;;;5046550;28;19913;-79
2023/06/28 01:42:09;;;;;;;;;;;18.20;62.40;;;;;;5052396;28;19913;-79
2023/06/28 01:44:35;;;;;;;;;;;18.00;64.00;;;;;;5052759;28;19979;-79
2023/06/28 01:47:00;;;;;;;;;;;18.10;63.30;;;;;;5049651;28;20071;-79
2023/06/28 01:49:26;;;;;;;;;;;18.00;62.30;;;;;;5048995;28;19916;-79
2023/06/28 01:51:55;;;;;;;;;;;18.10;62.40;;;;;;5038141;28;19921;-79
2023/06/28 01:54:20;;;;;;;;;;;18.00;64.00;;;;;;5041111;28;19913;-79
2023/06/28 01:56:46;;;;;;;;;;;17.90;62.90;;;;;;5038511;28;20045;-80
2023/06/28 01:59:11;;;;;;;;;;;17.90;64.30;;;;;;5044127;28;19917;-79
2023/06/28 02:01:37;;;;;;;;;;;17.90;63.50;;;;;;5037980;28;19916;-79
2023/06/28 02:04:02;;;;;;;;;;;17.70;64.90;;;;;;5044121;28;19928;-80
2023/06/28 02:06:28;;;;;;;;;;;17.80;64.50;;;;;;5044058;28;19913;-80
2023/06/28 02:08:54;;;;;;;;;;;17.80;63.60;;;;;;5061041;28;20676;-79
2023/06/28 02:11:20;;;;;;;;;;;17.70;63.90;;;;;;5057235;28;19916;-79
2023/06/28 02:13:45;;;;;;;;;;;17.70;64.40;;;;;;5044500;28;19920;-79
2023/06/28 02:16:11;;;;;;;;;;;17.70;63.80;;;;;;5043628;28;19908;-79
2023/06/28 02:18:38;;;;;;;;;;;17.90;62.80;;;;;;5048760;28;19912;-79
2023/06/28 02:21:03;;;;;;;;;;;17.70;64.10;;;;;;5046943;28;19913;-79
2023/06/28 02:23:29;;;;;;;;;;;17.80;63.60;;;;;;5073524;28;19912;-78
2023/06/28 02:25:54;;;;;;;;;;;18.10;61.00;;;;;;5052542;28;19982;-78
2023/06/28 02:28:20;;;;;;;;;;;17.90;62.70;;;;;;5064057;28;19955;-78
2023/06/28 02:30:46;;;;;;;;;;;17.80;62.70;;;;;;5062993;28;19931;-78
2023/06/28 02:33:11;;;;;;;;;;;17.80;63.60;;;;;;5059424;28;19921;-79
2023/06/28 02:35:37;;;;;;;;;;;17.70;63.20;;;;;;5062252;28;20654;-78
2023/06/28 02:38:02;;;;;;;;;;;17.60;64.00;;;;;;5063158;28;20007;-78
2023/06/28 02:40:28;;;;;;;;;;;17.50;64.80;;;;;;5061293;28;19947;-78
2023/06/28 02:42:53;;;;;;;;;;;17.40;65.20;;;;;;5061952;28;19920;-79
2023/06/28 02:45:19;;;;;;;;;;;17.40;66.40;;;;;;5063385;28;19916;-78
2023/06/28 02:47:45;;;;;;;;;;;17.30;66.40;;;;;;5045073;28;19920;-78
2023/06/28 02:50:10;;;;;;;;;;;17.30;66.30;;;;;;5062814;28;20474;-78
2023/06/28 02:52:36;;;;;;;;;;;17.30;66.60;;;;;;5058460;28;19917;-78
2023/06/28 02:55:01;;;;;;;;;;;17.40;65.50;;;;;;5063304;28;20711;-79
2023/06/28 02:57:27;;;;;;;;;;;17.30;65.50;;;;;;5053656;28;20302;-78
2023/06/28 02:59:53;;;;;;;;;;;17.20;65.90;;;;;;5055056;28;19913;-79
2023/06/28 03:02:18;;;;;;;;;;;17.20;65.70;;;;;;5045470;28;19912;-79
2023/06/28 03:04:44;;;;;;;;;;;17.20;66.40;;;;;;5062490;28;19920;-79
2023/06/28 03:07:16;;;;;;;;;;;17.20;66.40;;;;;;5062231;28;19912;-79
2023/06/28 03:09:41;;;;;;;;;;;17.20;65.90;;;;;;5062889;28;19920;-81
2023/06/28 03:12:07;;;;;;;;;;;17.20;65.80;;;;;;5050679;28;19923;-78
2023/06/28 03:14:33;;;;;;;;;;;17.10;66.40;;;;;;5062978;28;19951;-79
2023/06/28 03:16:59;;;;;;;;;;;17.10;66.20;;;;;;5051234;28;19913;-79
2023/06/28 03:19:24;;;;;;;;;;;17.20;66.30;;;;;;5056731;28;19928;-79
2023/06/28 03:21:50;;;;;;;;;;;17.10;66.50;;;;;;5044756;28;19913;-79
2023/06/28 03:24:15;;;;;;;;;;;17.00;67.00;;;;;;5062223;28;19940;-80
2023/06/28 03:26:41;;;;;;;;;;;17.00;67.30;;;;;;5065676;28;19938;-80
2023/06/28 03:29:07;;;;;;;;;;;17.00;66.90;;;;;;5048086;28;19921;-79
2023/06/28 03:31:32;;;;;;;;;;;16.90;67.50;;;;;;5048529;28;20337;-79
2023/06/28 03:33:58;;;;;;;;;;;16.90;68.40;;;;;;5044161;28;19913;-79
2023/06/28 03:36:27;;;;;;;;;;;16.80;68.50;;;;;;5062506;28;19912;-79
2023/06/28 03:38:53;;;;;;;;;;;16.80;68.40;;;;;;5061825;28;19913;-79
2023/06/28 03:41:18;;;;;;;;;;;16.80;68.20;;;;;;5054976;28;19923;-79
2023/06/28 03:43:44;;;;;;;;;;;16.80;68.40;;;;;;5059845;28;20330;-79
2023/06/28 03:46:10;;;;;;;;;;;16.80;67.90;;;;;;5055353;28;19920;-79
2023/06/28 03:48:35;;;;;;;;;;;16.80;67.90;;;;;;5059968;28;20065;-80
2023/06/28 03:51:01;;;;;;;;;;;16.80;67.40;;;;;;5059268;28;19916;-79
2023/06/28 03:53:26;;;;;;;;;;;16.80;67.60;;;;;;5056455;28;19922;-78
2023/06/28 03:55:52;;;;;;;;;;;16.70;68.10;;;;;;5064181;28;19942;-78
2023/06/28 03:58:18;;;;;;;;;;;16.70;68.10;;;;;;5059762;28;20520;-78
2023/06/28 04:00:43;;;;;;;;;;;16.60;68.70;;;;;;5060491;28;20374;-78
2023/06/28 04:03:09;;;;;;;;;;;16.70;68.20;;;;;;5043468;28;20997;-78
2023/06/28 04:05:34;;;;;;;;;;;16.70;68.20;;;;;;5062381;28;19955;-78
2023/06/28 04:08:01;;;;;;;;;;;16.70;68.20;;;;;;5050217;28;20401;-78
2023/06/28 04:10:27;;;;;;;;;;;16.60;68.20;;;;;;5044503;28;20719;-78
2023/06/28 04:12:53;;;;;;;;;;;16.70;68.50;;;;;;5049244;28;19922;-78
2023/06/28 04:15:18;;;;;;;;;;;16.70;68.30;;;;;;5048257;28;19913;-78
2023/06/28 04:17:44;;;;;;;;;;;16.70;68.30;;;;;;5065799;28;19919;-78
2023/06/28 04:20:10;;;;;;;;;;;16.70;68.50;;;;;;5061691;28;20438;-78
2023/06/28 04:22:36;;;;;;;;;;;16.60;68.70;;;;;;5062068;28;19921;-78
2023/06/28 04:25:02;;;;;;;;;;;16.70;68.70;;;;;;5066051;28;20362;-78
2023/06/28 04:27:28;;;;;;;;;;;16.70;68.70;;;;;;5074069;28;19979;-79
2023/06/28 04:29:53;;;;;;;;;;;16.70;68.80;;;;;;5066438;28;20003;-79
2023/06/28 04:32:21;;;;;;;;;;;16.80;68.30;;;;;;5065553;28;19982;-80
2023/06/28 04:34:47;;;;;;;;;;;16.80;68.20;;;;;;5048112;28;19955;-79
2023/06/28 04:37:13;;;;;;;;;;;16.90;68.00;;;;;;5066574;28;19919;-79
2023/06/28 04:39:39;;;;;;;;;;;16.90;68.10;;;;;;5066033;28;20250;-78
2023/06/28 04:42:04;;;;;;;;;;;17.00;68.00;;;;;;5069177;28;19993;-77
2023/06/28 04:44:34;;;;;;;;;;;17.00;67.80;;;;;;5063911;28;20407;-77
2023/06/28 04:46:59;;;;;;;;;;;17.20;67.50;;;;;;5063976;28;20700;-77
2023/06/28 04:49:25;;;;;;;;;;;17.20;67.60;;;;;;5065809;28;19916;-78
2023/06/28 04:51:50;;;;;;;;;;;17.30;67.60;;;;;;5058142;28;19917;-77
2023/06/28 04:54:16;;;;;;;;;;;17.30;67.20;;;;;;5060519;28;19909;-78
2023/06/28 04:56:44;;;;;;;;;;;17.40;67.60;;;;;;5061833;28;19924;-77
2023/06/28 04:59:09;;;;;;;;;;;17.40;67.90;;;;;;5057426;28;19916;-78
2023/06/28 05:01:35;;;;;;;;;;;17.50;68.30;;;;;;5077718;28;19921;-77
2023/06/28 05:04:00;;;;;;;;;;;17.70;68.60;;;;;;5062133;28;19951;-77
2023/06/28 05:06:28;;;;;;;;;;;17.80;68.60;;;;;;5065124;28;19950;-77
2023/06/28 05:08:53;;;;;;;;;;;17.90;69.50;;;;;;5061178;28;20033;-77
2023/06/28 05:11:19;;;;;;;;;;;18.00;68.90;;;;;;5064327;28;21380;-77
2023/06/28 05:13:44;;;;;;;;;;;17.90;68.90;;;;;;5061579;28;20417;-77
2023/06/28 05:16:10;;;;;;;;;;;18.10;68.30;;;;;;5061932;28;19976;-78
2023/06/28 05:18:35;;;;;;;;;;;18.10;68.80;;;;;;5064578;28;19916;-77
2023/06/28 05:21:01;;;;;;;;;;;18.20;68.70;;;;;;5060496;28;19921;-77
2023/06/28 05:23:27;;;;;;;;;;;18.20;69.70;;;;;;5046530;28;19916;-77
2023/06/28 05:25:52;;;;;;;;;;;18.20;70.00;;;;;;5062567;28;20039;-78
2023/06/28 05:28:18;;;;;;;;;;;18.50;69.10;;;;;;5060138;28;19924;-78
2023/06/28 05:30:44;;;;;;;;;;;18.90;67.90;;;;;;5064386;28;20041;-81
2023/06/28 05:33:10;;;;;;;;;;;19.20;66.60;;;;;;5063649;28;19916;-81
2023/06/28 05:35:36;;;;;;;;;;;19.10;66.00;;;;;;5064153;28;19917;-81
2023/06/28 05:38:02;;;;;;;;;;;19.30;66.60;;;;;;5064034;28;19970;-81
2023/06/28 05:40:29;;;;;;;;;;;19.50;66.70;;;;;;5041594;28;20011;-81
2023/06/28 05:42:55;;;;;;;;;;;19.60;66.50;;;;;;5041785;28;19952;-82
2023/06/28 05:45:28;;;;;;;;;;;19.80;66.20;;;;;;5046351;28;19909;-86
2023/06/28 05:47:53;;;;;;;;;;;20.00;65.60;;;;;;5051431;28;19920;-84
2023/06/28 05:50:21;;;;;;;;;;;20.30;65.30;;;;;;5060738;28;19921;-83
2023/06/28 05:52:47;;;;;;;;;;;20.50;64.70;;;;;;5061172;28;20689;-83
2023/06/28 05:55:13;;;;;;;;;;;20.60;63.30;;;;;;5059503;28;19920;-81
2023/06/28 05:57:39;;;;;;;;;;;20.70;63.20;;;;;;5053703;28;20279;-83
2023/06/28 06:00:05;;;;;;;;;;;20.70;64.80;;;;;;5042145;28;19916;-81
2023/06/28 06:02:31;;;;;;;;;;;21.00;63.10;;;;;;5057703;28;19913;-87
2023/06/28 06:04:57;;;;;;;;;;;21.10;61.00;;;;;;5059797;28;19959;-87
2023/06/28 06:07:23;;;;;;;;;;;20.10;65.80;;;;;;5062484;28;19963;-85
2023/06/28 06:09:49;;;;;;;;;;;20.10;63.80;;;;;;5061052;28;20673;-81
2023/06/28 06:12:14;;;;;;;;;;;20.70;62.70;;;;;;5062048;28;19947;-81
2023/06/28 06:14:40;;;;;;;;;;;21.10;60.60;;;;;;5064397;28;20015;-80
2023/06/28 06:17:05;;;;;;;;;;;21.40;60.20;;;;;;5064846;28;20105;-82
2023/06/28 06:19:31;;;;;;;;;;;21.70;59.10;;;;;;5051055;28;19919;-80
2023/06/28 06:21:57;;;;;;;;;;;21.50;58.70;;;;;;5045937;28;19915;-81
2023/06/28 06:24:22;;;;;;;;;;;22.20;58.50;;;;;;5057314;28;20000;-80
2023/06/28 06:26:48;;;;;;;;;;;22.10;56.70;;;;;;5070304;28;20684;-82
2023/06/28 06:29:13;;;;;;;;;;;21.90;57.70;;;;;;5078514;28;19921;-78
2023/06/28 06:31:39;;;;;;;;;;;22.80;56.00;;;;;;5064311;28;19923;-78
2023/06/28 06:34:04;;;;;;;;;;;22.60;56.70;;;;;;5046121;28;19919;-80
2023/06/28 06:36:30;;;;;;;;;;;23.20;55.70;;;;;;5068204;28;20011;-81
2023/06/28 06:38:56;;;;;;;;;;;23.30;55.90;;;;;;5059653;28;19942;-81
2023/06/28 06:41:22;;;;;;;;;;;23.80;55.00;;;;;;5060094;28;19955;-81
2023/06/28 06:43:47;;;;;;;;;;;24.00;54.70;;;;;;5061057;28;19994;-79
2023/06/28 06:46:13;;;;;;;;;;;24.00;54.60;;;;;;5060736;28;20660;-82
2023/06/28 06:48:39;;;;;;;;;;;24.10;54.60;;;;;;5061613;28;20001;-79
2023/06/28 06:51:05;;;;;;;;;;;24.10;53.40;;;;;;5060458;28;19924;-78
2023/06/28 06:53:31;;;;;;;;;;;24.70;52.90;;;;;;5062810;28;19920;-81
2023/06/28 06:55:56;;;;;;;;;;;24.60;52.80;;;;;;5061237;28;19916;-81
2023/06/28 06:58:23;;;;;;;;;;;25.00;52.50;;;;;;5062654;28;20029;-79
2023/06/28 07:00:49;;;;;;;;;;;24.90;52.40;;;;;;5063738;28;19912;-81
2023/06/28 07:03:14;;;;;;;;;;;25.60;52.40;;;;;;5062858;28;19943;-79
2023/06/28 07:05:40;;;;;;;;;;;26.00;51.40;;;;;;5066176;28;19924;-80
2023/06/28 07:08:05;;;;;;;;;;;25.80;50.00;;;;;;5047776;28;20034;-82
2023/06/28 07:10:31;;;;;;;;;;;25.40;50.80;;;;;;5060220;28;19916;-82
2023/06/28 07:12:57;;;;;;;;;;;25.40;51.40;;;;;;5069485;28;19916;-83
2023/06/28 07:15:22;;;;;;;;;;;25.60;50.60;;;;;;5058177;28;19927;-80
2023/06/28 07:17:49;;;;;;;;;;;26.00;49.10;;;;;;5058200;28;19920;-80
2023/06/28 07:20:15;;;;;;;;;;;26.00;50.00;;;;;;5063560;28;19916;-82
2023/06/28 07:22:40;;;;;;;;;;;26.30;49.30;;;;;;5049973;28;19978;-81
2023/06/28 07:25:06;;;;;;;;;;;26.40;48.30;;;;;;5060258;28;19916;-81
2023/06/28 07:27:32;;;;;;;;;;;26.90;49.00;;;;;;5039730;28;19980;-83
2023/06/28 07:29:57;;;;;;;;;;;27.00;48.70;;;;;;5035435;28;19925;-81
2023/06/28 07:32:26;;;;;;;;;;;27.20;48.10;;;;;;5033727;28;20661;-82
2023/06/28 07:34:52;;;;;;;;;;;27.20;47.30;;;;;;5047682;28;19919;-82
2023/06/28 07:37:17;;;;;;;;;;;26.70;48.00;;;;;;5036543;28;20708;-80
2023/06/28 07:39:43;;;;;;;;;;;26.90;47.50;;;;;;5041657;28;20427;-82
2023/06/28 07:42:08;;;;;;;;;;;27.20;45.80;;;;;;5043790;28;20466;-82
2023/06/28 07:44:34;;;;;;;;;;;27.10;46.20;;;;;;5036967;28;19920;-78
2023/06/28 07:46:59;;;;;;;;;;;27.50;45.70;;;;;;5032468;28;19967;-81
2023/06/28 07:49:25;;;;;;;;;;;28.00;46.70;;;;;;5030199;28;20417;-83
2023/06/28 07:51:51;;;;;;;;;;;28.00;45.00;;;;;;5036290;28;19929;-81
2023/06/28 07:54:17;;;;;;;;;;;28.60;46.00;;;;;;5031863;28;20349;-81
2023/06/28 07:56:42;;;;;;;;;;;28.50;44.60;;;;;;5020693;28;19921;-81
2023/06/28 07:59:09;;;;;;;;;;;28.30;45.00;;;;;;5041228;28;19913;-81
2023/06/28 08:01:36;;;;;;;;;;;28.40;45.60;;;;;;5032491;28;19921;-79
2023/06/28 08:04:01;;;;;;;;;;;28.50;44.60;;;;;;5046079;28;20007;-82
2023/06/28 08:06:28;;;;;;;;;;;28.60;45.60;;;;;;5040784;28;19917;-82
2023/06/28 08:08:54;;;;;;;;;;;29.30;44.40;;;;;;5033486;28;19929;-82
2023/06/28 08:11:19;;;;;;;;;;;29.80;44.00;;;;;;5037825;28;19976;-81
2023/06/28 08:13:45;;;;;;;;;;;29.80;44.10;;;;;;5039287;28;20333;-82
2023/06/28 08:16:11;;;;;;;;;;;29.80;43.30;;;;;;5038604;28;19913;-78
2023/06/28 08:18:36;;;;;;;;;;;29.80;43.80;;;;;;5036568;28;19924;-83
2023/06/28 08:21:02;;;;;;;;;;;29.70;43.40;;;;;;5040504;28;19917;-82
2023/06/28 08:23:27;;;;;;;;;;;29.70;43.30;;;;;;5041183;28;19920;-81
2023/06/28 08:25:53;;;;;;;;;;;30.20;44.10;;;;;;5048290;28;20007;-83
2023/06/28 08:28:19;;;;;;;;;;;30.70;41.80;;;;;;5060437;28;19986;-79
2023/06/28 08:30:44;;;;;;;;;;;30.50;42.80;;;;;;5060145;28;20540;-79
2023/06/28 08:33:11;;;;;;;;;;;30.40;45.20;;;;;;5056768;28;20012;-81
2023/06/28 08:35:36;;;;;;;;;;;30.00;43.60;;;;;;5046270;28;20357;-83
2023/06/28 08:38:03;;;;;;;;;;;30.40;44.00;;;;;;5066564;28;19970;-83
2023/06/28 08:40:30;;;;;;;;;;;31.00;43.00;;;;;;5061250;28;20727;-83
2023/06/28 08:42:58;;;;;;;;;;;31.50;43.40;;;;;;5062201;28;19917;-83
2023/06/28 08:45:24;;;;;;;;;;;31.80;41.20;;;;;;5062524;28;20051;-79
2023/06/28 08:47:50;;;;;;;;;;;31.60;41.70;;;;;;5050091;28;20003;-80
2023/06/28 08:50:17;;;;;;;;;;;31.10;42.10;;;;;;5058783;28;19916;-84
2023/06/28 08:52:44;;;;;;;;;;;32.10;41.00;;;;;;5062356;28;19970;-83
2023/06/28 08:55:10;;;;;;;;;;;32.70;41.30;;;;;;5043991;28;20534;-81
2023/06/28 08:57:36;;;;;;;;;;;31.60;40.60;;;;;;5065479;28;19996;-82
2023/06/28 09:00:03;;;;;;;;;;;31.30;40.80;;;;;;5054633;28;19916;-84
2023/06/28 09:02:30;;;;;;;;;;;32.40;41.60;;;;;;5049421;28;20713;-80
2023/06/28 09:04:56;;;;;;;;;;;33.30;40.70;;;;;;5076171;28;19916;-82
2023/06/28 09:07:22;;;;;;;;;;;33.00;40.60;;;;;;5064880;28;19920;-84
2023/06/28 09:09:50;;;;;;;;;;;33.70;38.70;;;;;;5059205;28;19921;-84
2023/06/28 09:12:16;;;;;;;;;;;33.70;39.70;;;;;;5064201;28;19916;-84
2023/06/28 09:14:42;;;;;;;;;;;33.80;40.40;;;;;;5057954;28;19917;-84
2023/06/28 09:17:08;;;;;;;;;;;34.20;39.00;;;;;;5062604;28;20003;-82
2023/06/28 09:19:33;;;;;;;;;;;33.30;38.80;;;;;;5065149;28;20434;-84
2023/06/28 09:22:02;;;;;;;;;;;33.60;38.90;;;;;;5057191;28;19920;-81
2023/06/28 09:24:31;;;;;;;;;;;33.60;39.80;;;;;;5067116;28;19958;-82
2023/06/28 09:27:00;;;;;;;;;;;33.90;39.60;;;;;;5071577;28;20018;-84
2023/06/28 09:29:26;;;;;;;;;;;33.90;39.80;;;;;;5060027;28;19920;-83
2023/06/28 09:31:53;;;;;;;;;;;34.30;38.30;;;;;;5064073;28;20809;-84
2023/06/28 09:34:22;;;;;;;;;;;34.20;38.40;;;;;;5063646;28;19913;-83
2023/06/28 09:36:55;;;;;;;;;;;34.00;37.70;;;;;;5065434;28;19912;-82
2023/06/28 09:39:21;;;;;;;;;;;34.70;39.60;;;;;;5045883;28;20584;-83
2023/06/28 09:41:48;;;;;;;;;;;35.70;39.20;;;;;;5058140;28;19939;-84
2023/06/28 09:44:13;;;;;;;;;;;36.20;38.30;;;;;;5056751;28;19944;-81
2023/06/28 09:46:46;;;;;;;;;;;35.60;37.60;;;;;;5064703;28;20402;-82
2023/06/28 09:49:21;;;;;;;;;;;35.00;37.50;;;;;;5058773;28;19916;-84
2023/06/28 09:51:58;;;;;;;;;;;35.30;37.90;;;;;;5060013;28;20283;-83
2023/06/28 09:54:28;;;;;;;;;;;34.60;37.50;;;;;;5064410;28;19912;-83
2023/06/28 09:56:54;;;;;;;;;;;34.90;37.10;;;;;;5062498;28;19908;-82
2023/06/28 09:59:20;;;;;;;;;;;34.50;38.40;;;;;;5060398;28;19917;-81
2023/06/28 10:01:48;;;;;;;;;;;35.00;37.70;;;;;;5064526;28;19912;-82
2023/06/28 10:04:16;;;;;;;;;;;34.70;37.60;;;;;;5065696;28;20024;-83
2023/06/28 10:06:43;;;;;;;;;;;34.20;38.60;;;;;;5057391;28;20327;-83
2023/06/28 10:09:08;;;;;;;;;;;34.50;37.30;;;;;;5063988;28;19959;-82
2023/06/28 10:11:38;;;;;;;;;;;35.10;38.50;;;;;;5061092;28;20014;-81
2023/06/28 10:14:05;;;;;;;;;;;34.50;37.50;;;;;;5059382;28;20023;-81
2023/06/28 10:16:32;;;;;;;;;;;35.80;38.40;;;;;;5063664;28;19913;-84
2023/06/28 10:18:58;;;;;;;;;;;34.30;37.60;;;;;;5063936;28;19920;-82
2023/06/28 10:21:24;;;;;;;;;;;34.10;38.70;;;;;;5064334;28;19923;-80
2023/06/28 10:23:50;;;;;;;;;;;35.40;36.60;;;;;;5062346;28;19917;-82
2023/06/28 10:26:16;;;;;;;;;;;34.70;38.00;;;;;;5061507;28;19924;-83
2023/06/28 10:28:42;;;;;;;;;;;34.80;37.00;;;;;;5060901;28;19920;-82
2023/06/28 10:31:07;;;;;;;;;;;34.70;37.30;;;;;;5061329;28;19916;-81
2023/06/28 10:33:36;;;;;;;;;;;35.60;39.10;;;;;;5061273;28;19916;-82
2023/06/28 10:36:02;;;;;;;;;;;34.90;38.30;;;;;;5075303;28;19912;-83
2023/06/28 10:38:37;;;;;;;;;;;34.40;38.90;;;;;;5061885;28;20423;-80
2023/06/28 10:41:03;;;;;;;;;;;34.10;38.40;;;;;;5059540;28;19970;-80
2023/06/28 10:43:30;;;;;;;;;;;34.10;38.80;;;;;;5051891;28;20027;-82
2023/06/28 10:45:55;;;;;;;;;;;34.80;38.10;;;;;;5056350;28;19917;-82
2023/06/28 10:48:22;;;;;;;;;;;34.60;38.40;;;;;;5057592;28;19936;-83
2023/06/28 10:50:48;;;;;;;;;;;34.20;38.00;;;;;;5056627;28;20058;-82
2023/06/28 10:53:24;;;;;;;;;;;32.10;40.10;;;;;;5062149;28;19917;-81
2023/06/28 10:56:09;;;;;;;;;;;32.10;41.70;;;;;;5065245;28;19912;-79
2023/06/28 10:58:40;;;;;;;;;;;32.30;45.00;;;;;;5054855;28;19957;-80
2023/06/28 11:01:07;;;;;;;;;;;32.30;42.10;;;;;;5055648;28;19920;-83
2023/06/28 11:03:37;;;;;;;;;;;31.50;43.30;;;;;;5062391;28;20298;-82
2023/06/28 11:06:02;;;;;;;;;;;30.70;46.60;;;;;;5051355;28;20243;-80
2023/06/28 11:08:44;;;;;;;;;;;30.90;45.80;;;;;;5054124;28;20462;-79
2023/06/28 11:11:20;;;;;;;;;;;31.10;46.50;;;;;;5065447;28;19920;-81
2023/06/28 11:13:48;;;;;;;;;;;31.30;43.50;;;;;;5058901;28;20044;-82
2023/06/28 11:16:16;;;;;;;;;;;31.10;49.50;;;;;;5061690;28;19920;-83
2023/06/28 11:18:42;;;;;;;;;;;30.30;47.10;;;;;;5057849;28;20367;-83
2023/06/28 11:21:34;;;;;;;;;;;30.40;46.80;;;;;;5062744;28;19922;-80
2023/06/28 11:24:00;;;;;;;;;;;30.10;48.40;;;;;;5058339;28;19916;-83
2023/06/28 11:26:32;;;;;;;;;;;30.20;47.00;;;;;;5053613;28;20608;-81
2023/06/28 11:28:57;;;;;;;;;;;30.40;47.90;;;;;;5062683;28;19927;-82
2023/06/28 11:31:25;;;;;;;;;;;29.70;50.80;;;;;;5056350;28;20326;-82
2023/06/28 11:33:52;;;;;;;;;;;30.10;50.00;;;;;;5054862;28;19912;-81
2023/06/28 11:36:18;;;;;;;;;;;29.60;50.90;;;;;;5058793;28;19912;-81
2023/06/28 11:38:45;;;;;;;;;;;29.60;53.50;;;;;;5057453;28;19912;-81
2023/06/28 11:41:11;;;;;;;;;;;30.00;53.10;;;;;;5060902;28;19913;-82
2023/06/28 11:43:36;;;;;;;;;;;30.20;50.00;;;;;;5043257;28;20354;-84
2023/06/28 11:46:02;;;;;;;;;;;30.10;52.10;;;;;;5044260;28;19988;-82
2023/06/28 11:48:28;;;;;;;;;;;30.10;50.30;;;;;;5050717;28;19943;-81
2023/06/28 11:51:00;;;;;;;;;;;30.00;51.40;;;;;;5062197;28;19917;-83
2023/06/28 11:53:29;;;;;;;;;;;29.60;51.80;;;;;;5044131;28;19913;-83
2023/06/28 11:55:56;;;;;;;;;;;29.60;53.00;;;;;;5057615;28;19913;-81
2023/06/28 11:58:32;;;;;;;;;;;29.30;51.90;;;;;;5052820;28;19913;-83
2023/06/28 12:00:58;;;;;;;;;;;29.30;49.90;;;;;;5032371;28;20146;-82
2023/06/28 12:03:30;;;;;;;;;;;29.20;50.60;;;;;;5045825;28;19917;-81
2023/06/28 12:05:55;;;;;;;;;;;29.60;52.40;;;;;;5049845;28;20498;-82
2023/06/28 12:08:21;;;;;;;;;;;29.10;49.80;;;;;;5046624;28;19917;-83
2023/06/28 12:10:47;;;;;;;;;;;29.40;53.20;;;;;;5060049;28;19923;-82
2023/06/28 12:13:22;;;;;;;;;;;29.00;52.40;;;;;;5047659;28;19959;-82
2023/06/28 12:15:48;;;;;;;;;;;29.20;50.70;;;;;;5050441;28;19974;-83
2023/06/28 12:18:14;;;;;;;;;;;29.40;50.50;;;;;;5072101;28;19912;-82
2023/06/28 12:20:39;;;;;;;;;;;29.50;51.30;;;;;;5062827;28;19966;-84
2023/06/28 12:23:14;;;;;;;;;;;29.30;49.90;;;;;;5055340;28;20661;-82
2023/06/28 12:25:41;;;;;;;;;;;29.10;48.10;;;;;;5052582;28;19925;-81
2023/06/28 12:28:08;;;;;;;;;;;28.70;47.10;;;;;;5055071;28;19979;-83
2023/06/28 12:30:34;;;;;;;;;;;28.50;45.80;;;;;;5060632;28;19920;-82
2023/06/28 12:33:04;;;;;;;;;;;28.30;48.20;;;;;;5053056;28;19919;-82
2023/06/28 12:35:30;;;;;;;;;;;28.10;45.20;;;;;;5055190;28;19962;-80
2023/06/28 12:37:56;;;;;;;;;;;28.00;46.70;;;;;;5061186;28;20059;-82
2023/06/28 12:40:24;;;;;;;;;;;27.80;46.30;;;;;;5060628;28;19920;-82
2023/06/28 12:43:08;;;;;;;;;;;27.70;44.70;;;;;;5051041;28;20857;-81
2023/06/28 12:45:39;;;;;;;;;;;27.80;45.60;;;;;;5056733;28;19955;-83
2023/06/28 12:48:04;;;;;;;;;;;27.90;48.30;;;;;;5062024;28;19920;-83
2023/06/28 12:50:30;;;;;;;;;;;27.70;46.70;;;;;;5057240;28;19959;-80
2023/06/28 12:52:55;;;;;;;;;;;27.80;47.40;;;;;;5051291;28;19952;-83
2023/06/28 12:55:21;;;;;;;;;;;28.10;48.60;;;;;;5051516;28;19909;-81
2023/06/28 12:57:47;;;;;;;;;;;27.80;45.40;;;;;;5053249;28;19909;-83
2023/06/28 13:00:13;;;;;;;;;;;27.70;46.80;;;;;;5057261;28;19917;-83
2023/06/28 13:02:39;;;;;;;;;;;27.70;48.00;;;;;;5053334;28;19977;-81
2023/06/28 13:05:05;;;;;;;;;;;27.50;46.20;;;;;;5057407;28;19920;-81
2023/06/28 13:07:30;;;;;;;;;;;27.60;45.60;;;;;;5065180;28;20287;-81
2023/06/28 13:09:56;;;;;;;;;;;27.90;48.00;;;;;;5057280;28;20303;-81
2023/06/28 13:12:22;;;;;;;;;;;27.80;47.70;;;;;;5055039;28;19921;-83
2023/06/28 13:14:47;;;;;;;;;;;28.00;47.40;;;;;;5050884;28;20033;-81
2023/06/28 13:17:13;;;;;;;;;;;28.10;48.40;;;;;;5063798;28;19956;-81
2023/06/28 13:19:38;;;;;;;;;;;28.10;48.30;;;;;;5058173;28;19980;-81
2023/06/28 13:22:05;;;;;;;;;;;27.50;46.10;;;;;;5064014;28;19956;-82
2023/06/28 13:24:31;;;;;;;;;;;27.70;49.10;;;;;;5063824;28;20426;-83
2023/06/28 13:26:57;;;;;;;;;;;27.60;46.50;;;;;;5061146;28;20019;-82
2023/06/28 13:29:23;;;;;;;;;;;27.40;47.90;;;;;;5059089;28;20255;-83
2023/06/28 13:31:49;;;;;;;;;;;27.20;46.50;;;;;;5064799;28;20160;-80
2023/06/28 13:34:14;;;;;;;;;;;27.50;48.20;;;;;;5064226;28;20375;-83
2023/06/28 13:36:41;;;;;;;;;;;27.40;48.10;;;;;;5059572;28;20027;-81
2023/06/28 13:39:06;;;;;;;;;;;27.10;47.10;;;;;;5064997;28;19912;-83
2023/06/28 13:41:32;;;;;;;;;;;27.50;49.40;;;;;;5064602;28;19986;-84
2023/06/28 13:43:57;;;;;;;;;;;27.70;52.80;;;;;;5054873;28;20560;-81
2023/06/28 13:46:23;;;;;;;;;;;27.80;55.80;;;;;;5061021;28;19919;-80
2023/06/28 13:48:49;;;;;;;;;;;27.50;54.90;;;;;;5045260;28;19944;-81
2023/06/28 13:51:14;;;;;;;;;;;27.60;52.70;;;;;;5062490;28;20775;-80
2023/06/28 13:53:40;;;;;;;;;;;27.40;51.30;;;;;;5047548;28;20011;-81
2023/06/28 13:56:06;;;;;;;;;;;27.50;54.40;;;;;;5054653;28;20007;-83
2023/06/28 13:58:33;;;;;;;;;;;27.60;52.90;;;;;;5048396;28;20004;-83
2023/06/28 14:00:59;;;;;;;;;;;27.60;56.30;;;;;;5051687;28;19918;-81
2023/06/28 14:03:25;;;;;;;;;;;27.40;56.90;;;;;;5048588;28;19917;-82
2023/06/28 14:05:52;;;;;;;;;;;27.40;55.80;;;;;;5052577;28;19963;-83
2023/06/28 14:08:17;;;;;;;;;;;27.40;56.20;;;;;;5052694;28;20023;-82
2023/06/28 14:10:43;;;;;;;;;;;27.40;57.40;;;;;;5074018;28;19916;-81